Portada
METAR-TAF:

METAR-TAF

Aeroports :

Puerto Limón, Costa Rica

latitud: 10-00N, longitud: 083-03W, altitud: 5 m

Observació

L'informe es va fer fa 57 minuts, a les 17:00 UTC
Vent 5 kt del Nord/Nord-Est
Temperatura 30°C
Humitat 75%
Pressió 1013 hPa
Visibilitat 10 km o més
sense núvols per sota de 1500 mi sense presència de cumulonimbus.

METAR: MRLM 191700Z 03005KT CAVOK 30/25 A2990

Hora: 11:57 (17:57 UTC)

Pronòstic

L'informe es va fer fa 45 minuts, a les 17:12 UTC
Pronòstic vàlid del 19 a les 18 UTC al 20 a les 18 UTC
Vent 6 kt del Nord-Est
Visibilitat 10 km o més
Escasses núvols a una alçada de 2000 ft
Núvols disperses a una alçada de 12000 ft
Evolucionant progressivament
l' 20 a les 00 UTC al 20 a les 02 UTC
Vent 4 kt del Oest/Sud-Oest
Evolucionant progressivament
l' 20 a les 14 UTC al 20 a les 16 UTC
Vent 6 kt del Nord-Est

TAF: MRLM 191712Z 1918/2018 04006KT 9999 FEW020 SCT120 TX31/1919Z TN23/2011Z BECMG 2000/2002 24004KT BECMG 2014/2016 05006KT

Observacions i pronòstics meteorològics de més de 4000 aeroports (METAR i TAF).

Les estacions disponibles són els punts grocs i vermells al mapa.

Posi el ratolí al punt desitjat per veure el nom de l'estació.

Feu clic per veure les observacions i els pronòstics meteorològics.

Per canviar el mapa: feu clic els botons verds amb una creu de color negre per apropar; al botó verd amb un guió per allunyar la imatge; o en les fletxes verdes per a mapes adjacents.


METAR-TAF: